Time,TemperatureF,DewpointF,PressureIn,WindDirection,WindDirectionDegrees,WindSpeedMPH,WindSpeedGustMPH,Humidity,HourlyPrecipIn,Conditions,Clouds,dailyrainin,SoftwareType,DateUTC
2013-05-19 00:02:00,73.0,64.0,29.72,ESE,110,9.0,-999.0,73,-99.99,,,-99.99,,2013-05-19 05:02:00,
2013-05-19 00:12:00,73.0,64.0,29.71,ESE,120,13.0,20.0,73,-99.99,,,-99.99,,2013-05-19 05:12:00,
2013-05-19 00:22:00,73.0,64.0,29.71,ESE,120,13.0,20.0,73,-99.99,,,-99.99,,2013-05-19 05:22:00,
2013-05-19 00:32:00,73.0,64.0,29.71,ESE,120,14.0,24.0,73,-99.99,,,-99.99,,2013-05-19 05:32:00,
2013-05-19 00:42:00,73.0,64.0,29.71,ESE,120,14.0,24.0,73,-99.99,,,-99.99,,2013-05-19 05:42:00,
2013-05-19 00:51:00,73.0,64.0,29.71,SE,130,16.0,22.0,73,-99.99,,,-99.99,,2013-05-19 05:51:00,
2013-05-19 01:02:00,73.0,64.0,29.71,SE,130,16.0,22.0,73,-99.99,,,-99.99,,2013-05-19 06:02:00,
2013-05-19 01:12:00,73.0,66.0,29.70,SE,130,15.0,24.0,78,-99.99,,,-99.99,,2013-05-19 06:12:00,
2013-05-19 01:21:00,73.0,66.0,29.70,SE,130,15.0,24.0,78,-99.99,,,-99.99,,2013-05-19 06:21:00,
2013-05-19 01:32:00,64.0,64.0,29.75,SW,230,12.0,27.0,100,-99.99,,,-99.99,,2013-05-19 06:32:00,
2013-05-19 01:52:00,64.0,64.0,29.74,SW,230,9.0,-999.0,100,-99.99,,,-99.99,,2013-05-19 06:52:00,
2013-05-19 02:01:00,64.0,64.0,29.74,SW,230,9.0,-999.0,100,-99.99,,,-99.99,,2013-05-19 07:01:00,
2013-05-19 02:11:00,64.0,64.0,29.73,SW,230,6.0,-999.0,100,-99.99,,,-99.99,,2013-05-19 07:11:00,
2013-05-19 02:21:00,64.0,64.0,29.73,SW,230,6.0,-999.0,100,-99.99,,,-99.99,,2013-05-19 07:21:00,
2013-05-19 02:32:00,64.0,64.0,29.72,WSW,250,5.0,-999.0,100,-99.99,,,-99.99,,2013-05-19 07:32:00,
2013-05-19 02:42:00,64.0,64.0,29.72,WSW,250,5.0,-999.0,100,-99.99,,,-99.99,,2013-05-19 07:42:00,
2013-05-19 02:52:00,64.0,64.0,29.72,North,0,0.0,-999.0,100,-99.99,,,-99.99,,2013-05-19 07:52:00,
2013-05-19 03:01:00,64.0,64.0,29.72,North,0,0.0,-999.0,100,-99.99,,,-99.99,,2013-05-19 08:01:00,
2013-05-19 03:12:00,64.0,64.0,29.70,North,0,0.0,-999.0,100,-99.99,,,-99.99,,2013-05-19 08:12:00,
2013-05-19 03:22:00,64.0,64.0,29.70,North,0,0.0,-999.0,100,-99.99,,,-99.99,,2013-05-19 08:22:00,
2013-05-19 03:32:00,64.0,64.0,29.72,SSE,160,7.0,-999.0,100,-99.99,,,-99.99,,2013-05-19 08:32:00,
2013-05-19 03:42:00,64.0,64.0,29.72,SSE,160,7.0,-999.0,100,-99.99,,,-99.99,,2013-05-19 08:42:00,
2013-05-19 03:52:00,63.0,63.0,29.70,East,100,6.0,-999.0,100,-99.99,,,-99.99,,2013-05-19 08:52:00,
2013-05-19 04:02:00,63.0,63.0,29.70,East,100,6.0,-999.0,100,-99.99,,,-99.99,,2013-05-19 09:02:00,
2013-05-19 04:11:00,63.0,63.0,29.66,East,80,7.0,-999.0,100,-99.99,,,-99.99,,2013-05-19 09:11:00,
2013-05-19 04:21:00,63.0,63.0,29.66,East,80,7.0,-999.0,100,-99.99,,,-99.99,,2013-05-19 09:21:00,
2013-05-19 04:32:00,63.0,63.0,29.66,East,100,6.0,-999.0,100,-99.99,,,-99.99,,2013-05-19 09:32:00,
2013-05-19 04:43:00,63.0,63.0,29.66,East,100,6.0,-999.0,100,-99.99,,,-99.99,,2013-05-19 09:43:00,
2013-05-19 04:53:00,63.0,63.0,29.66,SE,130,7.0,-999.0,100,-99.99,,,-99.99,,2013-05-19 09:53:00,
2013-05-19 05:02:00,63.0,63.0,29.66,SE,130,7.0,-999.0,100,-99.99,,,-99.99,,2013-05-19 10:02:00,
2013-05-19 05:12:00,63.0,63.0,29.62,North,0,0.0,-999.0,100,-99.99,,,-99.99,,2013-05-19 10:12:00,
2013-05-19 05:23:00,63.0,63.0,29.62,North,0,0.0,-999.0,100,-99.99,,,-99.99,,2013-05-19 10:23:00,
2013-05-19 05:33:00,63.0,63.0,29.62,North,0,0.0,-999.0,100,-99.99,,,-99.99,,2013-05-19 10:33:00,
2013-05-19 05:42:00,63.0,63.0,29.62,North,0,0.0,-999.0,100,-99.99,,,-99.99,,2013-05-19 10:42:00,
2013-05-19 05:52:00,63.0,63.0,29.61,North,0,0.0,-999.0,100,-99.99,,,-99.99,,2013-05-19 10:52:00,
2013-05-19 06:02:00,63.0,63.0,29.61,North,0,0.0,-999.0,100,-99.99,,,-99.99,,2013-05-19 11:02:00,
2013-05-19 06:12:00,63.0,63.0,29.63,North,0,0.0,-999.0,100,-99.99,,,-99.99,,2013-05-19 11:12:00,
2013-05-19 06:21:00,63.0,63.0,29.63,North,0,0.0,-999.0,100,-99.99,,,-99.99,,2013-05-19 11:21:00,
2013-05-19 06:32:00,63.0,63.0,29.65,SSE,150,10.0,20.0,100,-99.99,,,-99.99,,2013-05-19 11:32:00,
2013-05-19 06:42:00,63.0,63.0,29.65,SSE,150,10.0,20.0,100,-99.99,,,-99.99,,2013-05-19 11:42:00,
2013-05-19 06:52:00,63.0,63.0,29.65,SSE,160,9.0,-999.0,100,-99.99,,,-99.99,,2013-05-19 11:52:00,
2013-05-19 07:01:00,63.0,63.0,29.65,SSE,160,9.0,-999.0,100,-99.99,,,-99.99,,2013-05-19 12:01:00,
2013-05-19 07:11:00,63.0,63.0,29.64,SE,140,6.0,-999.0,100,-99.99,,,-99.99,,2013-05-19 12:11:00,
2013-05-19 07:22:00,63.0,63.0,29.64,SE,140,6.0,-999.0,100,-99.99,,,-99.99,,2013-05-19 12:22:00,
2013-05-19 07:32:00,61.0,61.0,29.64,SSE,150,8.0,-999.0,100,-99.99,,,-99.99,,2013-05-19 12:32:00,
2013-05-19 07:42:00,61.0,61.0,29.64,SSE,150,8.0,-999.0,100,-99.99,,,-99.99,,2013-05-19 12:42:00,
2013-05-19 07:52:00,63.0,63.0,29.64,South,190,5.0,-999.0,100,-99.99,,,-99.99,,2013-05-19 12:52:00,
2013-05-19 08:01:00,63.0,63.0,29.64,South,190,5.0,-999.0,100,-99.99,,,-99.99,,2013-05-19 13:01:00,
2013-05-19 08:11:00,63.0,63.0,29.64,South,190,5.0,-999.0,100,-99.99,,,-99.99,,2013-05-19 13:11:00,
2013-05-19 08:21:00,63.0,63.0,29.64,South,190,5.0,-999.0,100,-99.99,,,-99.99,,2013-05-19 13:21:00,
2013-05-19 08:32:00,63.0,63.0,29.68,SE,140,10.0,21.0,100,-99.99,,,-99.99,,2013-05-19 13:32:00,
2013-05-19 08:42:00,63.0,63.0,29.68,SE,140,10.0,21.0,100,-99.99,,,-99.99,,2013-05-19 13:42:00,
2013-05-19 08:52:00,63.0,63.0,29.69,South,170,8.0,-999.0,100,-99.99,,,-99.99,,2013-05-19 13:52:00,
2013-05-19 09:02:00,63.0,63.0,29.69,South,170,8.0,-999.0,100,-99.99,,,-99.99,,2013-05-19 14:02:00,
2013-05-19 09:11:00,63.0,63.0,29.69,South,170,8.0,-999.0,100,-99.99,,,-99.99,,2013-05-19 14:11:00,
2013-05-19 09:21:00,63.0,63.0,29.69,South,170,8.0,-999.0,100,-99.99,,,-99.99,,2013-05-19 14:21:00,
2013-05-19 09:32:00,63.0,63.0,29.71,SW,230,9.0,-999.0,100,-99.99,,,-99.99,,2013-05-19 14:32:00,
2013-05-19 09:42:00,63.0,63.0,29.71,SW,230,9.0,-999.0,100,-99.99,,,-99.99,,2013-05-19 14:42:00,
2013-05-19 09:52:00,63.0,63.0,29.69,WSW,240,6.0,-999.0,100,-99.99,,,-99.99,,2013-05-19 14:52:00,
2013-05-19 10:01:00,63.0,63.0,29.69,WSW,240,6.0,-999.0,100,-99.99,,,-99.99,,2013-05-19 15:01:00,
2013-05-19 10:11:00,64.0,63.0,29.68,West,260,8.0,-999.0,93,-99.99,,,-99.99,,2013-05-19 15:11:00,
2013-05-19 10:22:00,64.0,63.0,29.68,West,260,8.0,-999.0,93,-99.99,,,-99.99,,2013-05-19 15:22:00,
2013-05-19 10:33:00,64.0,63.0,29.69,West,260,6.0,-999.0,93,-99.99,,,-99.99,,2013-05-19 15:33:00,
2013-05-19 10:43:00,64.0,63.0,29.69,West,260,6.0,-999.0,93,-99.99,,,-99.99,,2013-05-19 15:43:00,
2013-05-19 10:53:00,66.0,64.0,29.70,SSW,210,8.0,-999.0,93,-99.99,,,-99.99,,2013-05-19 15:53:00,
2013-05-19 11:03:00,66.0,64.0,29.70,SSW,210,8.0,-999.0,93,-99.99,,,-99.99,,2013-05-19 16:03:00,
2013-05-19 11:12:00,66.0,64.0,29.70,SSW,210,8.0,-999.0,93,-99.99,,,-99.99,,2013-05-19 16:12:00,
2013-05-19 11:23:00,66.0,64.0,29.70,SSW,210,8.0,-999.0,93,-99.99,,,-99.99,,2013-05-19 16:23:00,
2013-05-19 11:32:00,66.0,63.0,29.69,SSE,150,6.0,-999.0,88,-99.99,,,-99.99,,2013-05-19 16:32:00,
2013-05-19 11:42:00,66.0,63.0,29.69,SSE,150,6.0,-999.0,88,-99.99,,,-99.99,,2013-05-19 16:42:00,
2013-05-19 11:52:00,66.0,63.0,29.68,North,0,0.0,-999.0,88,-99.99,,,-99.99,,2013-05-19 16:52:00,
2013-05-19 12:02:00,66.0,63.0,29.68,North,0,0.0,-999.0,88,-99.99,,,-99.99,,2013-05-19 17:02:00,
2013-05-19 12:12:00,66.0,63.0,29.68,North,0,0.0,-999.0,88,-99.99,,,-99.99,,2013-05-19 17:12:00,
2013-05-19 12:22:00,66.0,63.0,29.68,North,0,0.0,-999.0,88,-99.99,,,-99.99,,2013-05-19 17:22:00,
2013-05-19 12:32:00,66.0,63.0,29.68,SE,130,6.0,-999.0,88,-99.99,,,-99.99,,2013-05-19 17:32:00,
2013-05-19 12:42:00,66.0,63.0,29.68,SE,130,6.0,-999.0,88,-99.99,,,-99.99,,2013-05-19 17:42:00,
2013-05-19 12:52:00,66.0,63.0,29.68,SE,130,8.0,-999.0,88,-99.99,,,-99.99,,2013-05-19 17:52:00,
2013-05-19 13:02:00,66.0,63.0,29.68,SE,130,8.0,-999.0,88,-99.99,,,-99.99,,2013-05-19 18:02:00,
2013-05-19 13:12:00,66.0,63.0,29.67,SE,140,7.0,-999.0,88,-99.99,,,-99.99,,2013-05-19 18:12:00,
2013-05-19 13:22:00,66.0,63.0,29.67,SE,140,7.0,-999.0,88,-99.99,,,-99.99,,2013-05-19 18:22:00,
2013-05-19 13:32:00,66.0,63.0,29.66,SE,130,9.0,-999.0,88,-99.99,,,-99.99,,2013-05-19 18:32:00,
2013-05-19 13:42:00,66.0,63.0,29.66,SE,130,9.0,-999.0,88,-99.99,,,-99.99,,2013-05-19 18:42:00,
2013-05-19 13:52:00,66.0,64.0,29.67,SSE,160,9.0,-999.0,93,-99.99,,,-99.99,,2013-05-19 18:52:00,
2013-05-19 14:01:00,66.0,64.0,29.67,SSE,160,9.0,-999.0,93,-99.99,,,-99.99,,2013-05-19 19:01:00,
2013-05-19 14:11:00,66.0,64.0,29.67,South,170,6.0,-999.0,93,-99.99,,,-99.99,,2013-05-19 19:11:00,
2013-05-19 14:22:00,66.0,64.0,29.67,South,170,6.0,-999.0,93,-99.99,,,-99.99,,2013-05-19 19:22:00,
2013-05-19 14:32:00,66.0,64.0,29.67,South,170,7.0,-999.0,93,-99.99,,,-99.99,,2013-05-19 19:32:00,
2013-05-19 14:42:00,66.0,64.0,29.67,South,170,7.0,-999.0,93,-99.99,,,-99.99,,2013-05-19 19:42:00,
2013-05-19 14:52:00,66.0,64.0,29.67,South,190,5.0,-999.0,93,-99.99,,,-99.99,,2013-05-19 19:52:00,
2013-05-19 15:02:00,66.0,64.0,29.67,South,190,5.0,-999.0,93,-99.99,,,-99.99,,2013-05-19 20:02:00,
2013-05-19 15:11:00,66.0,64.0,29.68,North,0,0.0,-999.0,93,-99.99,,,-99.99,,2013-05-19 20:11:00,
2013-05-19 15:21:00,66.0,64.0,29.68,North,0,0.0,-999.0,93,-99.99,,,-99.99,,2013-05-19 20:21:00,
2013-05-19 15:32:00,66.0,64.0,29.69,North,0,0.0,-999.0,93,-99.99,,,-99.99,,2013-05-19 20:32:00,
2013-05-19 15:42:00,66.0,64.0,29.69,North,0,0.0,-999.0,93,-99.99,,,-99.99,,2013-05-19 20:42:00,
2013-05-19 15:52:00,66.0,64.0,29.69,SSW,200,6.0,-999.0,93,-99.99,,,-99.99,,2013-05-19 20:52:00,
2013-05-19 16:02:00,66.0,64.0,29.69,SSW,200,6.0,-999.0,93,-99.99,,,-99.99,,2013-05-19 21:02:00,
2013-05-19 16:11:00,66.0,64.0,29.67,North,0,0.0,-999.0,93,-99.99,,,-99.99,,2013-05-19 21:11:00,
2013-05-19 16:22:00,66.0,64.0,29.67,North,0,0.0,-999.0,93,-99.99,,,-99.99,,2013-05-19 21:22:00,
2013-05-19 16:32:00,66.0,64.0,29.67,North,0,0.0,-999.0,93,-99.99,,,-99.99,,2013-05-19 21:32:00,
2013-05-19 16:43:00,66.0,64.0,29.67,North,0,0.0,-999.0,93,-99.99,,,-99.99,,2013-05-19 21:43:00,
2013-05-19 16:53:00,66.0,64.0,29.67,North,0,0.0,-999.0,93,-99.99,,,-99.99,,2013-05-19 21:53:00,
2013-05-19 17:03:00,66.0,64.0,29.67,North,0,0.0,-999.0,93,-99.99,,,-99.99,,2013-05-19 22:03:00,
2013-05-19 17:12:00,66.0,66.0,29.67,SE,140,12.0,20.0,100,-99.99,,,-99.99,,2013-05-19 22:12:00,
2013-05-19 17:23:00,66.0,66.0,29.67,SE,140,12.0,20.0,100,-99.99,,,-99.99,,2013-05-19 22:23:00,
2013-05-19 17:33:00,64.0,64.0,29.62,East,90,8.0,-999.0,100,-99.99,,,-99.99,,2013-05-19 22:33:00,
2013-05-19 17:42:00,64.0,64.0,29.62,East,90,8.0,-999.0,100,-99.99,,,-99.99,,2013-05-19 22:42:00,
2013-05-19 17:52:00,66.0,64.0,29.53,ENE,60,14.0,18.0,93,-99.99,,,-99.99,,2013-05-19 22:52:00,
2013-05-19 18:02:00,66.0,64.0,29.53,ENE,60,14.0,18.0,93,-99.99,,,-99.99,,2013-05-19 23:02:00,
2013-05-19 18:11:00,66.0,64.0,29.55,ENE,60,7.0,-999.0,93,-99.99,,,-99.99,,2013-05-19 23:11:00,
2013-05-19 18:22:00,66.0,64.0,29.55,ENE,60,7.0,-999.0,93,-99.99,,,-99.99,,2013-05-19 23:22:00,
2013-05-19 18:32:00,66.0,64.0,29.56,North,0,0.0,-999.0,93,-99.99,,,-99.99,,2013-05-19 23:32:00,
2013-05-19 18:42:00,66.0,64.0,29.56,North,0,0.0,-999.0,93,-99.99,,,-99.99,,2013-05-19 23:42:00,
2013-05-19 18:52:00,68.0,66.0,29.59,SSE,150,12.0,17.0,93,-99.99,,,-99.99,,2013-05-19 23:52:00,
2013-05-19 19:02:00,68.0,66.0,29.59,SSE,150,12.0,17.0,93,-99.99,,,-99.99,,2013-05-20 00:02:00,
2013-05-19 19:11:00,68.0,66.0,29.59,ESE,120,10.0,21.0,93,-99.99,,,-99.99,,2013-05-20 00:11:00,
2013-05-19 19:22:00,68.0,66.0,29.59,ESE,120,10.0,21.0,93,-99.99,,,-99.99,,2013-05-20 00:22:00,
2013-05-19 19:32:00,68.0,66.0,29.59,SE,130,7.0,-999.0,93,-99.99,,,-99.99,,2013-05-20 00:32:00,
2013-05-19 19:42:00,68.0,66.0,29.59,SE,130,7.0,-999.0,93,-99.99,,,-99.99,,2013-05-20 00:42:00,
2013-05-19 19:52:00,68.0,66.0,29.60,SE,130,8.0,-999.0,93,-99.99,,,-99.99,,2013-05-20 00:52:00,
2013-05-19 20:01:00,68.0,66.0,29.60,SE,130,8.0,-999.0,93,-99.99,,,-99.99,,2013-05-20 01:01:00,
2013-05-19 20:11:00,68.0,66.0,29.60,SE,130,8.0,-999.0,93,-99.99,,,-99.99,,2013-05-20 01:11:00,
2013-05-19 20:21:00,68.0,66.0,29.60,SE,130,8.0,-999.0,93,-99.99,,,-99.99,,2013-05-20 01:21:00,
2013-05-19 20:31:00,68.0,66.0,29.58,ESE,110,5.0,-999.0,93,-99.99,,,-99.99,,2013-05-20 01:31:00,
2013-05-19 20:42:00,68.0,66.0,29.58,ESE,110,5.0,-999.0,93,-99.99,,,-99.99,,2013-05-20 01:42:00,
2013-05-19 20:52:00,66.0,64.0,29.58,North,0,0.0,-999.0,93,-99.99,,,-99.99,,2013-05-20 01:52:00,
2013-05-19 21:02:00,66.0,64.0,29.58,North,0,0.0,-999.0,93,-99.99,,,-99.99,,2013-05-20 02:02:00,
2013-05-19 21:11:00,66.0,64.0,29.58,North,0,0.0,-999.0,93,-99.99,,,-99.99,,2013-05-20 02:11:00,
2013-05-19 21:21:00,66.0,64.0,29.58,North,0,0.0,-999.0,93,-99.99,,,-99.99,,2013-05-20 02:21:00,
2013-05-19 21:31:00,64.0,64.0,29.56,North,0,0.0,-999.0,100,-99.99,,,-99.99,,2013-05-20 02:31:00,
2013-05-19 21:42:00,64.0,64.0,29.56,North,0,0.0,-999.0,100,-99.99,,,-99.99,,2013-05-20 02:42:00,
2013-05-19 21:52:00,64.0,64.0,29.56,North,0,0.0,-999.0,100,-99.99,,,-99.99,,2013-05-20 02:52:00,
2013-05-19 22:01:00,64.0,64.0,29.56,North,0,0.0,-999.0,100,-99.99,,,-99.99,,2013-05-20 03:01:00,
2013-05-19 22:11:00,64.0,64.0,29.58,North,0,0.0,-999.0,100,-99.99,,,-99.99,,2013-05-20 03:11:00,
2013-05-19 22:21:00,64.0,64.0,29.58,North,0,0.0,-999.0,100,-99.99,,,-99.99,,2013-05-20 03:21:00,
2013-05-19 22:33:00,64.0,64.0,29.57,North,0,0.0,-999.0,100,-99.99,,,-99.99,,2013-05-20 03:33:00,
2013-05-19 22:42:00,64.0,64.0,29.57,North,0,0.0,-999.0,100,-99.99,,,-99.99,,2013-05-20 03:42:00,
2013-05-19 22:52:00,64.0,64.0,29.56,North,0,0.0,-999.0,100,-99.99,,,-99.99,,2013-05-20 03:52:00,
2013-05-19 23:02:00,64.0,64.0,29.56,North,0,0.0,-999.0,100,-99.99,,,-99.99,,2013-05-20 04:02:00,
2013-05-19 23:12:00,64.0,64.0,29.56,North,0,0.0,-999.0,100,-99.99,,,-99.99,,2013-05-20 04:12:00,
2013-05-19 23:23:00,64.0,64.0,29.56,North,0,0.0,-999.0,100,-99.99,,,-99.99,,2013-05-20 04:23:00,
2013-05-19 23:33:00,64.0,64.0,29.56,ENE,60,6.0,-999.0,100,-99.99,,,-99.99,,2013-05-20 04:33:00,
2013-05-19 23:42:00,64.0,64.0,29.56,ENE,60,6.0,-999.0,100,-99.99,,,-99.99,,2013-05-20 04:42:00,
2013-05-19 23:52:00,64.0,64.0,29.54,NNE,30,7.0,-999.0,100,-99.99,,,-99.99,,2013-05-20 04:52:00,